Time;durP1;ratioP1;P1;durP2;ratioP2;P2;SDS_P1;SDS_P2;PMS_P1;PMS_P2;Temp;Humidity;BMP_temperature;BMP_pressure;BME280_temperature;BME280_humidity;BME280_pressure;Samples;Min_cycle;Max_cycle;Signal;HPM_P1;HPM_P2
2023/04/04 00:00:17;;;;;;;3.17;1.48;;;;;;;1.48;75.26;101144.34;10524830;28;20060;-74
2023/04/04 00:05:19;;;;;;;2.20;1.40;;;;;;;1.39;76.19;101141.53;10524679;28;20071;-74
2023/04/04 00:10:22;;;;;;;4.03;1.90;;;;;;;1.52;75.71;101138.38;10530606;28;20143;-74
2023/04/04 00:15:24;;;;;;;3.47;1.58;;;;;;;1.74;74.27;101138.00;10550496;28;20062;-74
2023/04/04 00:20:26;;;;;;;3.50;1.70;;;;;;;1.49;75.80;101136.59;10550923;28;20040;-74
2023/04/04 00:25:27;;;;;;;2.72;1.70;;;;;;;1.56;75.65;101128.97;10534640;28;20054;-73
2023/04/04 00:30:30;;;;;;;4.85;1.60;;;;;;;1.40;76.26;101120.81;10551410;28;20036;-74
2023/04/04 00:35:32;;;;;;;3.42;1.58;;;;;;;1.35;76.29;101124.16;10531796;28;20400;-74
2023/04/04 00:40:41;;;;;;;3.35;1.85;;;;;;;1.38;76.29;101125.13;10531154;28;20047;-74
2023/04/04 00:45:43;;;;;;;3.17;1.60;;;;;;;1.39;76.59;101121.69;10548370;28;20040;-74
2023/04/04 00:50:44;;;;;;;4.28;1.70;;;;;;;1.48;76.28;101113.25;10530649;28;20048;-74
2023/04/04 00:55:46;;;;;;;3.72;1.77;;;;;;;1.63;74.62;101120.47;10530719;28;20047;-75
2023/04/04 01:00:48;;;;;;;4.57;1.90;;;;;;;1.48;75.75;101103.75;10530623;28;20052;-73
2023/04/04 01:05:50;;;;;;;3.00;1.45;;;;;;;1.56;76.24;101113.41;10530351;28;20044;-73
2023/04/04 01:10:52;;;;;;;2.85;1.60;;;;;;;1.26;77.14;101107.56;10549066;28;20131;-73
2023/04/04 01:15:55;;;;;;;4.13;1.77;;;;;;;1.08;78.43;101101.97;10547942;28;20070;-74
2023/04/04 01:21:01;;;;;;;3.10;2.05;;;;;;;1.33;77.52;101105.09;10527990;28;20059;-74
2023/04/04 01:26:03;;;;;;;3.75;1.83;;;;;;;1.42;76.14;101094.97;10547590;28;20116;-74
2023/04/04 01:31:11;;;;;;;4.50;1.50;;;;;;;1.41;76.95;101101.84;10529528;28;20094;-73
2023/04/04 01:36:21;;;;;;;3.23;1.50;;;;;;;1.38;76.69;101096.63;10514262;28;20040;-74
2023/04/04 01:41:24;;;;;;;2.33;1.50;;;;;;;1.31;77.17;101094.72;10529495;28;20044;-74
2023/04/04 01:46:31;;;;;;;3.42;1.70;;;;;;;1.16;77.95;101091.78;10529279;28;20075;-75
2023/04/04 01:51:33;;;;;;;4.68;1.70;;;;;;;1.25;77.85;101084.22;10528679;28;20115;-74
2023/04/04 01:56:35;;;;;;;6.40;1.75;;;;;;;1.24;78.00;101078.19;10546794;28;20064;-73
2023/04/04 02:01:37;;;;;;;3.83;1.73;;;;;;;1.27;78.32;101074.75;10528889;28;20461;-74
2023/04/04 02:06:40;;;;;;;5.13;2.22;;;;;;;1.32;77.95;101067.97;10529887;28;20135;-74
2023/04/04 02:11:42;;;;;;;3.75;2.05;;;;;;;1.20;77.99;101065.13;10547998;28;20040;-74
2023/04/04 02:16:44;;;;;;;3.95;2.08;;;;;;;1.24;78.12;101061.75;10546159;28;20090;-74
2023/04/04 02:21:46;;;;;;;5.28;2.30;;;;;;;1.01;79.52;101064.66;10510898;28;20386;-74
2023/04/04 02:26:48;;;;;;;5.60;2.10;;;;;;;1.11;79.38;101067.50;10512491;28;20044;-73
2023/04/04 02:31:50;;;;;;;3.13;2.00;;;;;;;1.17;78.45;101060.75;10527507;28;20062;-73
2023/04/04 02:36:52;;;;;;;4.00;2.28;;;;;;;0.84;80.85;101059.94;10527046;28;20141;-73
2023/04/04 02:41:55;;;;;;;4.28;1.90;;;;;;;0.97;79.89;101056.78;10511429;28;20044;-73
2023/04/04 02:46:57;;;;;;;5.25;1.95;;;;;;;0.94;79.79;101061.94;10544195;28;20056;-74
2023/04/04 02:52:03;;;;;;;3.72;1.90;;;;;;;0.82;80.50;101062.50;10509427;28;20099;-74
2023/04/04 02:57:10;;;;;;;3.75;2.08;;;;;;;0.63;81.96;101050.84;10525423;28;20044;-74
2023/04/04 03:02:12;;;;;;;5.78;2.25;;;;;;;0.41;83.18;101044.25;10524969;28;20532;-73
2023/04/04 03:07:14;;;;;;;3.60;1.92;;;;;;;0.41;83.46;101057.16;10508025;28;20135;-74
2023/04/04 03:12:19;;;;;;;7.18;1.95;;;;;;;0.47;82.55;101059.91;10525849;28;20143;-73
2023/04/04 03:17:21;;;;;;;3.67;1.98;;;;;;;0.29;84.09;101055.97;10544274;28;20459;-74
2023/04/04 03:22:24;;;;;;;4.72;1.70;;;;;;;0.14;85.55;101054.75;10508142;28;20071;-73
2023/04/04 03:27:25;;;;;;;3.35;1.80;;;;;;;0.12;86.45;101055.53;10524331;28;20044;-74
2023/04/04 03:32:27;;;;;;;3.47;1.80;;;;;;;0.48;84.37;101050.44;10541871;28;20046;-75
2023/04/04 03:37:29;;;;;;;3.35;2.00;;;;;;;0.30;85.07;101055.13;10524367;28;20589;-75
2023/04/04 03:42:34;;;;;;;10.30;9.25;;;;;;;0.28;86.57;101049.06;10526674;28;20114;-74
2023/04/04 03:47:41;;;;;;;6.47;5.00;;;;;;;0.30;85.99;101045.66;10533049;28;20078;-74
2023/04/04 03:52:43;;;;;;;5.00;3.72;;;;;;;0.28;86.83;101043.88;10533708;28;20047;-74
2023/04/04 03:57:47;;;;;;;5.32;2.47;;;;;;;0.52;84.63;101052.25;10516351;28;20044;-74
2023/04/04 04:02:52;;;;;;;3.97;2.53;;;;;;;0.18;87.42;101037.59;10534800;28;20043;-74
2023/04/04 04:07:55;;;;;;;3.38;2.10;;;;;;;0.27;87.29;101035.25;10516565;28;20040;-73
2023/04/04 04:12:58;;;;;;;5.50;2.45;;;;;;;0.24;88.56;101043.81;10534091;28;20056;-74
2023/04/04 04:18:00;;;;;;;5.10;2.90;;;;;;;0.17;87.75;101043.59;10531808;28;20509;-73
2023/04/04 04:23:02;;;;;;;5.47;2.40;;;;;;;0.18;87.94;101045.38;10532437;28;20059;-74
2023/04/04 04:28:04;;;;;;;2.72;1.88;;;;;;;0.01;89.18;101044.91;10532602;28;20063;-73
2023/04/04 04:33:07;;;;;;;6.50;2.10;;;;;;;0.05;89.64;101051.91;10551184;28;20044;-73
2023/04/04 04:43:51;;;;;;;5.43;2.38;;;;;;;0.15;88.37;101056.50;10324796;28;20054;-74
2023/04/04 04:48:54;;;;;;;5.78;2.50;;;;;;;0.15;87.85;101053.91;10321893;28;20046;-73
2023/04/04 04:54:01;;;;;;;5.90;2.53;;;;;;;0.09;88.27;101052.84;10339236;28;20052;-74
2023/04/04 04:59:06;;;;;;;3.90;2.15;;;;;;;0.11;88.10;101049.47;10338569;28;20058;-74
2023/04/04 05:04:11;;;;;;;3.90;2.25;;;;;;;0.00;89.15;101061.25;10340270;28;20092;-74
2023/04/04 05:09:21;;;;;;;12.77;3.17;;;;;;;0.22;88.45;101057.50;10338496;28;20137;-74
2023/04/04 05:14:24;;;;;;;5.38;2.65;;;;;;;0.58;84.68;101062.78;10338166;28;20463;-72
2023/04/04 05:19:31;;;;;;;5.90;2.70;;;;;;;0.44;84.50;101069.28;10338738;28;20056;-73
2023/04/04 05:24:35;;;;;;;7.78;2.88;;;;;;;0.38;84.54;101072.59;10337472;28;20047;-73
2023/04/04 05:29:37;;;;;;;4.97;2.60;;;;;;;0.48;85.01;101081.47;10321461;28;20141;-74
2023/04/04 05:34:39;;;;;;;4.32;2.47;;;;;;;0.41;83.40;101090.81;10337960;28;20081;-73
2023/04/04 05:39:46;;;;;;;2.97;1.90;;;;;;;0.60;82.30;101086.97;10322218;28;20057;-74
2023/04/04 05:44:47;;;;;;;5.60;2.50;;;;;;;0.69;82.41;101091.50;10337894;28;20046;-73
2023/04/04 05:49:49;;;;;;;5.47;2.47;;;;;;;0.78;81.75;101090.84;10336523;28;20105;-73
2023/04/04 05:54:53;;;;;;;5.55;2.58;;;;;;;0.84;81.12;101097.06;10337307;28;20074;-73
2023/04/04 06:00:01;;;;;;;4.45;2.55;;;;;;;0.99;80.13;101102.63;10322720;28;20516;-73
2023/04/04 06:05:04;;;;;;;5.22;2.50;;;;;;;1.22;77.30;101099.69;10337568;28;20046;-73
2023/04/04 06:10:09;;;;;;;5.68;2.33;;;;;;;1.24;76.86;101096.31;10336921;28;20054;-73
2023/04/04 06:15:12;;;;;;;5.85;2.53;;;;;;;1.94;72.27;101093.47;10337488;28;20058;-74
2023/04/04 06:20:17;;;;;;;3.25;2.10;;;;;;;2.13;70.63;101093.00;10336890;28;20070;-73
2023/04/04 06:25:23;;;;;;;5.33;1.90;;;;;;;2.56;68.59;101100.69;10337846;28;20137;-72
2023/04/04 06:30:26;;;;;;;3.28;1.92;;;;;;;3.04;65.26;101091.13;10336907;28;20101;-73
2023/04/04 06:35:28;;;;;;;3.42;1.77;;;;;;;3.01;65.33;101080.72;10318864;28;20074;-74
2023/04/04 06:40:32;;;;;;;6.35;2.08;;;;;;;3.34;64.13;101086.38;10335465;28;20100;-72
2023/04/04 06:45:35;;;;;;;3.78;2.15;;;;;;;3.00;65.78;101086.72;10337615;28;20482;-74
2023/04/04 06:50:37;;;;;;;4.15;2.30;;;;;;;2.86;65.84;101084.78;10337483;28;20050;-72
2023/04/04 06:55:43;;;;;;;4.55;2.38;;;;;;;2.67;64.67;101084.47;10335814;28;20049;-72
2023/04/04 07:00:45;;;;;;;4.68;2.42;;;;;;;2.72;66.04;101085.41;10318735;28;20046;-73
2023/04/04 07:05:46;;;;;;;4.72;2.70;;;;;;;2.78;64.07;101079.44;10321311;28;20046;-73
2023/04/04 07:10:48;;;;;;;5.20;2.47;;;;;;;2.67;64.93;101081.88;10335777;28;20118;-73
2023/04/04 07:15:50;;;;;;;4.00;2.60;;;;;;;2.98;62.85;101074.59;10336584;28;20456;-73
2023/04/04 07:20:52;;;;;;;4.85;2.10;;;;;;;3.00;62.14;101075.47;10335675;28;20045;-73
2023/04/04 07:25:53;;;;;;;4.07;2.03;;;;;;;2.98;62.62;101080.66;10337306;28;20039;-74
2023/04/04 07:30:59;;;;;;;5.15;1.95;;;;;;;3.07;59.32;101085.13;10336393;28;20404;-73
2023/04/04 07:36:02;;;;;;;3.85;2.05;;;;;;;2.92;59.67;101087.47;10335380;28;20086;-73
2023/04/04 07:41:04;;;;;;;8.15;2.33;;;;;;;2.86;59.63;101084.78;10334845;28;20129;-73
2023/04/04 07:46:05;;;;;;;4.22;2.65;;;;;;;3.01;57.32;101079.81;10335631;28;20045;-73
2023/04/04 07:51:08;;;;;;;4.30;2.03;;;;;;;3.01;58.32;101082.41;10336285;28;20054;-74
2023/04/04 07:56:09;;;;;;;4.28;2.25;;;;;;;3.23;58.52;101086.22;10334424;28;20420;-70
2023/04/04 08:01:11;;;;;;;4.90;2.13;;;;;;;3.61;54.87;101080.69;10335811;28;20501;-70
2023/04/04 08:06:13;;;;;;;2.95;2.00;;;;;;;3.66;53.66;101079.03;10335098;28;20039;-70
2023/04/04 08:11:15;;;;;;;3.47;2.38;;;;;;;3.56;53.50;101085.84;10318397;28;20047;-71
2023/04/04 08:16:17;;;;;;;3.67;1.75;;;;;;;4.07;53.72;101074.31;10313116;28;20456;-72
2023/04/04 08:21:19;;;;;;;3.80;1.52;;;;;;;4.29;51.00;101071.13;10374706;28;20096;-73
2023/04/04 08:26:20;;;;;;;2.65;1.30;;;;;;;4.05;48.87;101071.72;10371871;28;20042;-73
2023/04/04 08:31:22;;;;;;;3.78;1.10;;;;;;;4.08;47.40;101062.22;10342068;28;20074;-74
2023/04/04 08:36:24;;;;;;;3.95;1.50;;;;;;;4.37;46.34;101078.13;10343540;28;20083;-72
2023/04/04 08:41:26;;;;;;;2.25;1.20;;;;;;;4.69;47.00;101076.72;10341699;28;20069;-73
2023/04/04 08:46:28;;;;;;;3.55;1.20;;;;;;;4.87;44.61;101067.28;10380494;28;20038;-72
2023/04/04 08:51:32;;;;;;;1.75;0.93;;;;;;;5.17;43.89;101064.03;10352864;28;20073;-72
2023/04/04 08:56:34;;;;;;;2.58;1.10;;;;;;;4.74;43.57;101068.94;10341050;28;20047;-73
2023/04/04 09:01:36;;;;;;;2.13;1.05;;;;;;;5.04;43.89;101057.84;10364419;28;20042;-72
2023/04/04 09:06:39;;;;;;;1.35;0.82;;;;;;;5.25;41.69;101044.97;10366815;28;20122;-72
2023/04/04 09:11:44;;;;;;;2.92;0.90;;;;;;;5.44;42.08;101051.16;10340242;28;20050;-73
2023/04/04 09:16:45;;;;;;;1.83;1.00;;;;;;;5.62;41.23;101054.72;10342062;28;20117;-73
2023/04/04 09:21:48;;;;;;;2.05;1.00;;;;;;;5.96;40.53;101053.16;10339936;28;20097;-73
2023/04/04 09:26:52;;;;;;;2.58;0.90;;;;;;;5.88;40.69;101047.88;10341007;28;20039;-72
2023/04/04 09:31:54;;;;;;;2.58;1.33;;;;;;;6.10;39.62;101046.25;10340438;28;20046;-73
2023/04/04 09:36:57;;;;;;;1.95;1.10;;;;;;;5.90;39.34;101047.91;10372929;28;20042;-72
2023/04/04 09:42:00;;;;;;;2.30;0.90;;;;;;;6.38;39.58;101051.56;10356337;28;20042;-73
2023/04/04 09:47:25;;;;;;;1.42;1.00;;;;;;;6.14;37.76;101058.44;10338842;28;20046;-73
2023/04/04 09:52:36;;;;;;;2.35;0.82;;;;;;;6.19;38.67;101054.09;10339494;28;20093;-73
2023/04/04 09:57:40;;;;;;;1.83;0.75;;;;;;;6.91;35.97;101051.56;10339421;28;20400;-72
2023/04/04 10:02:46;;;;;;;2.30;0.70;;;;;;;6.31;37.48;101053.25;10338456;28;20068;-72
2023/04/04 10:07:48;;;;;;;3.43;1.10;;;;;;;6.79;38.25;101043.72;10338108;28;20047;-72
2023/04/04 10:12:51;;;;;;;2.90;1.20;;;;;;;5.73;38.79;101051.31;10377558;28;20060;-72
2023/04/04 10:17:54;;;;;;;1.45;1.08;;;;;;;6.47;40.08;101044.59;10378299;28;20038;-72
2023/04/04 10:22:57;;;;;;;2.45;1.50;;;;;;;6.70;36.27;101036.75;10378647;28;20042;-72
2023/04/04 10:27:58;;;;;;;1.48;0.65;;;;;;;6.70;37.12;101048.97;10377010;28;20045;-72
2023/04/04 10:33:06;;;;;;;1.23;0.68;;;;;;;6.62;36.62;101041.09;10376934;28;20081;-72
2023/04/04 10:38:08;;;;;;;2.15;0.60;;;;;;;7.39;35.55;101035.78;10377604;28;20045;-72
2023/04/04 10:43:11;;;;;;;0.90;0.70;;;;;;;7.24;34.69;101028.84;10510354;22;20415;-71
2023/04/04 10:48:13;;;;;;;2.28;0.98;;;;;;;7.00;35.39;101021.94;10528561;28;20055;-72
2023/04/04 10:53:15;;;;;;;1.08;0.80;;;;;;;7.30;35.48;101020.97;10546045;28;20071;-72
2023/04/04 10:58:17;;;;;;;2.55;1.00;;;;;;;7.41;35.24;101020.97;10546523;28;20094;-70
2023/04/04 11:03:19;;;;;;;2.13;0.70;;;;;;;7.52;34.86;101014.81;10545943;28;20054;-71
2023/04/04 11:08:24;;;;;;;1.40;0.55;;;;;;;7.47;33.27;101013.09;10543991;28;20094;-71
2023/04/04 11:13:28;;;;;;;0.95;0.70;;;;;;;7.28;33.85;101012.28;10527407;28;20121;-72
2023/04/04 11:18:44;;;;;;;2.85;0.90;;;;;;;6.74;34.52;101001.06;10543361;28;20545;-71
2023/04/04 11:23:46;;;;;;;1.75;0.80;;;;;;;6.95;34.09;101002.75;10543634;28;20055;-70
2023/04/04 11:28:48;;;;;;;1.30;0.80;;;;;;;7.25;32.91;101000.06;10543123;28;20454;-71
2023/04/04 11:33:58;;;;;;;2.13;0.82;;;;;;;6.98;34.43;100987.06;10542601;28;20486;-71
2023/04/04 11:39:21;;;;;;;1.45;0.95;;;;;;;7.15;35.73;100993.13;10543614;28;20110;-71
2023/04/04 11:44:29;;;;;;;1.55;0.90;;;;;;;7.86;34.45;100980.66;10544386;28;20044;-71
2023/04/04 11:49:36;;;;;;;1.52;0.77;;;;;;;7.27;34.22;100985.25;10544372;28;20040;-71
2023/04/04 11:54:39;;;;;;;1.65;0.70;;;;;;;7.16;35.06;100975.69;10543801;28;20062;-71
2023/04/04 11:59:44;;;;;;;1.10;0.60;;;;;;;6.72;34.74;100974.03;10542836;28;20493;-70
2023/04/04 12:04:46;;;;;;;1.38;0.90;;;;;;;7.22;34.28;100973.09;10547163;28;20048;-72
2023/04/04 12:09:49;;;;;;;1.33;0.60;;;;;;;7.53;35.15;100966.88;10550128;28;20119;-71
2023/04/04 12:14:53;;;;;;;2.38;0.90;;;;;;;7.05;36.67;100960.94;10550429;28;20468;-71
2023/04/04 12:20:09;;;;;;;1.45;0.70;;;;;;;7.08;33.70;100952.19;10549915;28;20085;-71
2023/04/04 12:25:11;;;;;;;2.40;1.02;;;;;;;7.59;34.56;100945.03;10549562;28;20467;-71
2023/04/04 12:30:14;;;;;;;1.63;0.70;;;;;;;7.21;35.26;100934.72;10532584;28;20040;-71
2023/04/04 12:35:17;;;;;;;2.13;1.05;;;;;;;6.69;36.96;100940.97;10551404;28;20119;-71
2023/04/04 12:40:19;;;;;;;1.60;0.85;;;;;;;5.83;37.71;100943.50;10551825;28;20046;-72
2023/04/04 12:45:21;;;;;;;1.42;0.80;;;;;;;6.17;36.37;100938.38;10552504;28;20386;-71
2023/04/04 12:50:27;;;;;;;1.38;0.70;;;;;;;6.16;36.36;100931.41;10533789;28;20526;-72
2023/04/04 12:55:30;;;;;;;1.17;0.70;;;;;;;6.15;36.46;100932.25;10553169;28;20075;-72
2023/04/04 13:00:32;;;;;;;1.85;1.10;;;;;;;6.95;37.28;100927.84;10533991;28;20044;-72
2023/04/04 13:05:35;;;;;;;1.60;0.73;;;;;;;6.65;37.15;100909.63;10550518;28;20048;-72
2023/04/04 13:11:03;;;;;;;1.02;0.70;;;;;;;6.06;36.23;100921.81;10549742;28;20036;-71
2023/04/04 13:16:07;;;;;;;1.55;0.57;;;;;;;5.79;36.31;100920.00;10548935;28;20040;-71
2023/04/04 13:21:11;;;;;;;2.00;1.00;;;;;;;5.71;35.74;100906.06;10513757;28;20052;-71
2023/04/04 13:26:12;;;;;;;1.95;0.70;;;;;;;5.96;36.32;100893.97;10548676;28;20040;-72
2023/04/04 13:31:14;;;;;;;1.92;0.98;;;;;;;6.20;35.32;100886.16;10548813;28;20036;-72
2023/04/04 13:36:16;;;;;;;1.42;0.93;;;;;;;6.02;35.36;100887.03;10548995;28;20067;-71
2023/04/04 13:41:18;;;;;;;1.55;0.82;;;;;;;6.07;36.80;100885.28;10548354;28;20562;-71
2023/04/04 13:46:20;;;;;;;1.98;0.70;;;;;;;6.36;35.74;100876.56;10550193;28;20052;-71
2023/04/04 13:51:23;;;;;;;1.85;0.77;;;;;;;6.37;35.13;100880.03;10552430;28;20054;-71
2023/04/04 13:56:25;;;;;;;1.73;0.85;;;;;;;6.37;35.84;100872.19;10550932;28;20039;-71
2023/04/04 14:01:27;;;;;;;2.58;0.80;;;;;;;6.21;36.48;100856.56;10550633;28;20126;-72
2023/04/04 14:06:30;;;;;;;1.05;0.65;;;;;;;6.31;36.64;100860.91;10532165;28;20104;-71
2023/04/04 14:11:33;;;;;;;2.10;0.57;;;;;;;6.36;36.48;100854.81;10532646;28;20047;-71
2023/04/04 14:16:35;;;;;;;3.15;1.17;;;;;;;6.70;35.07;100856.47;10532042;28;20453;-71
2023/04/04 14:21:37;;;;;;;2.35;0.75;;;;;;;6.36;35.02;100860.03;10549187;28;20105;-72
2023/04/04 14:26:39;;;;;;;1.63;0.80;;;;;;;6.14;34.78;100854.81;10549215;28;20086;-71
2023/04/04 14:31:41;;;;;;;1.30;0.50;;;;;;;5.62;36.10;100859.09;10549643;28;20505;-70
2023/04/04 14:36:43;;;;;;;0.70;0.43;;;;;;;6.07;36.33;100846.13;10549706;28;20067;-72
2023/04/04 14:41:45;;;;;;;2.20;0.80;;;;;;;6.10;35.47;100849.59;10547152;28;20039;-71
2023/04/04 14:46:51;;;;;;;2.40;0.75;;;;;;;6.07;35.59;100842.66;10531869;28;20036;-70
2023/04/04 14:51:53;;;;;;;0.57;0.50;;;;;;;5.90;35.30;100841.75;10548679;28;20497;-71
2023/04/04 14:56:56;;;;;;;1.70;0.65;;;;;;;6.00;36.27;100844.38;10527025;28;20074;-71
2023/04/04 15:01:59;;;;;;;1.20;0.70;;;;;;;5.93;35.10;100844.38;10548128;28;20123;-72
2023/04/04 15:07:02;;;;;;;1.63;0.85;;;;;;;5.89;34.81;100838.28;10530109;28;20068;-71
2023/04/04 15:12:04;;;;;;;3.33;0.70;;;;;;;5.76;36.63;100837.41;10529696;28;20118;-72
2023/04/04 15:17:06;;;;;;;1.77;0.77;;;;;;;5.78;36.19;100834.78;10529076;28;20046;-72
2023/04/04 15:22:09;;;;;;;1.02;0.47;;;;;;;5.59;36.75;100830.44;10528975;28;20123;-72
2023/04/04 15:27:11;;;;;;;6.50;4.00;;;;;;;5.82;36.48;100841.75;10527879;28;20080;-72
2023/04/04 15:32:13;;;;;;;7.55;5.43;;;;;;;5.57;35.48;100831.28;10546812;28;20044;-71
2023/04/04 15:37:15;;;;;;;4.28;2.42;;;;;;;5.50;35.92;100829.53;10545663;28;20067;-71
2023/04/04 15:42:18;;;;;;;1.13;0.70;;;;;;;5.42;35.58;100820.84;10547049;28;20412;-71
2023/04/04 15:47:21;;;;;;;2.67;0.65;;;;;;;5.59;36.11;100813.03;10548233;28;20036;-71
2023/04/04 15:52:23;;;;;;;1.63;0.65;;;;;;;5.44;37.15;100820.81;10528966;28;20066;-71
2023/04/04 15:57:26;;;;;;;1.35;0.82;;;;;;;5.33;37.14;100815.59;10546208;28;20050;-71
2023/04/04 16:02:28;;;;;;;1.90;0.75;;;;;;;5.41;37.32;100816.50;10526776;28;20138;-70
2023/04/04 16:07:31;;;;;;;2.22;0.77;;;;;;;5.49;36.59;100813.88;10544370;28;20036;-71
2023/04/04 16:12:32;;;;;;;3.63;1.90;;;;;;;5.23;36.94;100824.28;10543251;28;20064;-71
2023/04/04 16:17:35;;;;;;;3.53;1.60;;;;;;;5.02;38.00;100815.53;10544492;28;20485;-71
2023/04/04 16:22:36;;;;;;;3.30;1.08;;;;;;;5.11;37.68;100816.41;10526293;28;20056;-71
2023/04/04 16:27:38;;;;;;;2.00;0.80;;;;;;;4.99;37.69;100818.09;10526010;28;20032;-70
2023/04/04 16:32:40;;;;;;;2.17;0.82;;;;;;;4.89;37.18;100815.47;10544055;28;20044;-70
2023/04/04 16:37:42;;;;;;;1.10;0.70;;;;;;;5.07;37.90;100818.13;10543812;28;20084;-72
2023/04/04 16:42:44;;;;;;;1.05;0.68;;;;;;;5.13;37.25;100817.28;10526803;28;20414;-75
2023/04/04 16:47:47;;;;;;;2.30;0.90;;;;;;;5.14;37.30;100811.22;10528740;28;20044;-76
2023/04/04 16:52:49;;;;;;;3.63;0.90;;;;;;;5.31;37.16;100807.78;10537743;28;20052;-75
2023/04/04 16:58:26;;;;;;;1.83;0.80;;;;;;;5.25;36.38;100802.53;10555112;28;20051;-76
2023/04/04 17:03:30;;;;;;;1.70;0.70;;;;;;;5.07;37.32;100803.38;10425730;28;20045;-75
2023/04/04 17:08:32;;;;;;;1.55;0.60;;;;;;;4.87;37.73;100804.16;10423060;28;20537;-75
2023/04/04 17:13:34;;;;;;;1.05;0.57;;;;;;;4.96;37.84;100796.41;10424270;28;20057;-75
2023/04/04 17:18:36;;;;;;;1.10;0.60;;;;;;;4.93;37.63;100797.25;10424157;28;20057;-76
2023/04/04 17:23:38;;;;;;;2.88;1.00;;;;;;;4.91;37.48;100800.69;10406931;28;20111;-75
2023/04/04 17:28:40;;;;;;;0.60;0.60;;;;;;;4.70;38.30;100801.50;10424376;28;20427;-75
2023/04/04 17:33:42;;;;;;;1.55;0.70;;;;;;;4.53;39.12;100791.88;10423297;28;20057;-76
2023/04/04 17:38:45;;;;;;;1.73;0.70;;;;;;;4.64;38.65;100807.53;10495167;28;20048;-76
2023/04/04 17:43:57;;;;;;;2.22;1.23;;;;;;;4.49;39.66;100803.13;10552048;28;20051;-76
2023/04/04 17:49:23;;;;;;;2.63;1.15;;;;;;;4.52;39.28;100804.91;10513733;28;20124;-75
2023/04/04 17:54:25;;;;;;;6.03;2.90;;;;;;;4.42;40.28;100800.47;10539615;28;20040;-76
2023/04/04 17:59:28;;;;;;;2.65;0.95;;;;;;;4.54;39.93;100804.03;10528972;28;20074;-74
2023/04/04 18:04:30;;;;;;;1.88;0.82;;;;;;;4.39;40.41;100803.09;10551718;28;20509;-76
2023/04/04 18:09:32;;;;;;;1.50;0.80;;;;;;;4.25;40.73;100800.38;10534552;28;20036;-76
2023/04/04 18:14:34;;;;;;;2.80;1.00;;;;;;;4.25;40.98;100802.97;10553326;28;20047;-75
2023/04/04 18:19:36;;;;;;;2.58;1.00;;;;;;;4.13;41.39;100802.94;10532714;28;20429;-75
2023/04/04 18:24:40;;;;;;;3.80;1.10;;;;;;;4.14;41.23;100812.47;10501113;28;20098;-76
2023/04/04 18:29:43;;;;;;;2.30;1.20;;;;;;;4.15;41.38;100816.81;10552050;28;20036;-75
2023/04/04 18:34:45;;;;;;;2.20;1.20;;;;;;;4.13;41.26;100810.72;10524208;28;20044;-75
2023/04/04 18:39:47;;;;;;;3.38;1.33;;;;;;;4.18;41.60;100812.50;10506288;28;20051;-76
2023/04/04 18:44:52;;;;;;;3.00;1.30;;;;;;;4.09;41.30;100815.03;10506884;28;20041;-76
2023/04/04 18:49:54;;;;;;;2.42;1.20;;;;;;;4.31;41.31;100813.44;10517304;28;20457;-77
2023/04/04 18:54:56;;;;;;;1.98;1.20;;;;;;;4.12;41.88;100815.06;10550065;28;20044;-75
2023/04/04 18:59:59;;;;;;;2.50;1.35;;;;;;;4.01;42.35;100821.91;10549697;28;20378;-75
2023/04/04 19:05:03;;;;;;;2.03;1.27;;;;;;;4.09;42.49;100821.97;10529740;28;20055;-75
2023/04/04 19:10:08;;;;;;;2.83;1.23;;;;;;;3.99;42.52;100818.44;10545891;28;20036;-76
2023/04/04 19:15:10;;;;;;;2.17;1.42;;;;;;;3.79;43.16;100823.47;10525057;28;20055;-76
2023/04/04 19:20:12;;;;;;;3.75;1.20;;;;;;;4.02;43.34;100813.25;10543630;28;20032;-76
2023/04/04 19:25:17;;;;;;;2.10;1.25;;;;;;;3.97;42.83;100813.22;10505911;28;20064;-77
2023/04/04 19:30:38;;;;;;;3.10;1.25;;;;;;;4.03;42.91;100817.59;10487853;28;20127;-77
2023/04/04 19:35:58;;;;;;;2.97;1.20;;;;;;;3.77;43.34;100815.66;10525985;28;20044;-77
2023/04/04 19:41:10;;;;;;;3.33;1.48;;;;;;;3.76;43.93;100811.34;10526791;28;20056;-76
2023/04/04 19:46:31;;;;;;;2.13;1.30;;;;;;;3.84;44.17;100815.69;10543758;28;20040;-75
2023/04/04 19:52:00;;;;;;;2.38;1.30;;;;;;;3.88;44.05;100807.94;10544250;28;20055;-77
2023/04/04 19:57:06;;;;;;;2.60;1.30;;;;;;;3.65;44.79;100819.88;10541121;28;20064;-76
2023/04/04 20:02:39;;;;;;;1.92;1.10;;;;;;;3.45;45.23;100815.38;10543602;28;20052;-76
2023/04/04 20:07:40;;;;;;;5.18;2.00;;;;;;;3.45;45.46;100812.78;10525949;28;20044;-75
2023/04/04 20:12:42;;;;;;;2.40;1.50;;;;;;;3.67;45.20;100813.81;10525639;28;20486;-74
2023/04/04 20:17:44;;;;;;;2.50;1.75;;;;;;;3.42;46.00;100811.88;10525511;28;20044;-76
2023/04/04 20:22:46;;;;;;;4.72;1.70;;;;;;;3.24;46.78;100812.56;10524865;28;20040;-75
2023/04/04 20:27:48;;;;;;;7.95;3.95;;;;;;;3.37;47.89;100805.75;10530553;28;20099;-76
2023/04/04 20:32:50;;;;;;;4.97;3.08;;;;;;;3.20;48.69;100810.78;10530723;28;20058;-76
2023/04/04 20:37:52;;;;;;;4.47;2.58;;;;;;;3.03;49.05;100806.25;10531096;28;20048;-75
2023/04/04 20:42:54;;;;;;;6.43;3.28;;;;;;;2.98;50.11;100804.47;10547958;28;20044;-75
2023/04/04 20:47:57;;;;;;;6.30;2.83;;;;;;;3.03;50.53;100813.19;10530897;28;20555;-76
2023/04/04 20:53:01;;;;;;;7.93;4.28;;;;;;;3.38;51.54;100808.38;10546974;28;20082;-75
2023/04/04 20:58:08;;;;;;;9.35;5.85;;;;;;;3.21;51.43;100812.53;10547348;28;20048;-75
2023/04/04 21:03:28;;;;;;;5.05;2.60;;;;;;;3.29;50.15;100805.69;10528849;28;20128;-75
2023/04/04 21:08:49;;;;;;;4.07;1.80;;;;;;;3.13;49.85;100808.97;10528156;28;20589;-75
2023/04/04 21:13:51;;;;;;;4.35;1.77;;;;;;;2.78;51.96;100806.81;10546898;28;20051;-75
2023/04/04 21:19:00;;;;;;;3.17;1.90;;;;;;;2.61;52.49;100800.56;10546252;28;20119;-76
2023/04/04 21:24:09;;;;;;;4.15;1.88;;;;;;;2.77;52.06;100795.56;10545490;28;20046;-76
2023/04/04 21:29:21;;;;;;;2.60;1.75;;;;;;;2.45;54.18;100791.72;10545945;28;20040;-75
2023/04/04 21:34:25;;;;;;;3.42;2.20;;;;;;;2.56;54.21;100794.44;10527438;28;20044;-75
2023/04/04 21:39:28;;;;;;;6.50;1.98;;;;;;;2.54;53.98;100786.63;10544909;28;20460;-75
2023/04/04 21:44:30;;;;;;;3.22;1.70;;;;;;;2.86;53.65;100784.44;10544491;28;20048;-76
2023/04/04 21:49:32;;;;;;;3.08;1.92;;;;;;;2.96;52.44;100782.81;10544212;28;20509;-75
2023/04/04 21:54:34;;;;;;;2.75;1.75;;;;;;;2.63;53.98;100784.16;10544256;28;20408;-76
2023/04/04 21:59:35;;;;;;;3.95;1.70;;;;;;;2.50;54.75;100780.53;10509187;28;20044;-76
2023/04/04 22:04:37;;;;;;;2.75;1.70;;;;;;;2.74;54.93;100771.28;10544893;28;20058;-76
2023/04/04 22:09:41;;;;;;;4.38;1.70;;;;;;;2.87;55.82;100767.13;10544180;28;20064;-75
2023/04/04 22:14:44;;;;;;;3.72;1.92;;;;;;;2.53;57.49;100767.59;10543807;28;20040;-76
2023/04/04 22:19:57;;;;;;;3.00;1.95;;;;;;;2.47;57.23;100762.31;10544846;28;20036;-75
2023/04/04 22:25:05;;;;;;;4.30;1.88;;;;;;;2.46;56.34;100767.50;10543955;28;20059;-75
2023/04/04 22:30:08;;;;;;;3.22;1.55;;;;;;;2.74;54.15;100769.56;10544482;28;20043;-76
2023/04/04 22:35:11;;;;;;;5.38;1.60;;;;;;;2.69;54.46;100762.59;10509289;28;20056;-75
2023/04/04 22:40:13;;;;;;;3.53;1.90;;;;;;;2.95;53.71;100761.16;10508657;28;20066;-75
2023/04/04 22:45:39;;;;;;;2.58;1.67;;;;;;;2.64;54.57;100759.06;10494658;22;20088;-73
2023/04/04 22:50:41;;;;;;;2.55;1.77;;;;;;;2.50;55.70;100764.09;10333257;28;20431;-72
2023/04/04 22:55:43;;;;;;;3.78;2.53;;;;;;;2.45;55.65;100761.44;10317128;28;20070;-73
2023/04/04 23:00:45;;;;;;;4.38;2.00;;;;;;;3.19;53.46;100764.88;10320763;28;20058;-72
2023/04/04 23:05:46;;;;;;;2.80;1.63;;;;;;;2.77;54.28;100760.97;10334749;28;20054;-73
2023/04/04 23:10:48;;;;;;;2.90;1.70;;;;;;;2.47;55.57;100756.25;10316700;28;20142;-73
2023/04/04 23:15:50;;;;;;;3.45;1.83;;;;;;;2.85;53.53;100753.25;10333417;28;20054;-73
2023/04/04 23:20:52;;;;;;;5.60;1.98;;;;;;;2.79;53.29;100754.06;10319868;28;20046;-73
2023/04/04 23:25:53;;;;;;;2.92;1.73;;;;;;;2.74;53.54;100754.00;10384701;28;20060;-73
2023/04/04 23:30:55;;;;;;;2.53;1.70;;;;;;;2.45;54.58;100745.00;10458699;28;20043;-73
2023/04/04 23:35:57;;;;;;;2.28;1.45;;;;;;;2.45;55.29;100748.47;10457794;28;20045;-73